sensor_id;sensor_type;location;lat;lon;timestamp;pressure;altitude;pressure_sealevel;temperature;humidity
23016;BME280;11674;52.428;13.584;2023-01-29T00:04:10;102492.88;;;1.87;80.79
23016;BME280;11674;52.428;13.584;2023-01-29T00:09:17;102478.16;;;1.88;81.03
23016;BME280;11674;52.428;13.584;2023-01-29T00:14:24;102475.31;;;1.96;80.78
23016;BME280;11674;52.428;13.584;2023-01-29T00:19:31;102466.25;;;1.96;80.85
23016;BME280;11674;52.428;13.584;2023-01-29T00:24:38;102471.09;;;1.94;80.90
23016;BME280;11674;52.428;13.584;2023-01-29T00:29:45;102469.78;;;1.90;80.70
23016;BME280;11674;52.428;13.584;2023-01-29T00:34:52;102464.88;;;1.85;80.77
23016;BME280;11674;52.428;13.584;2023-01-29T00:39:59;102447.34;;;1.80;80.60
23016;BME280;11674;52.428;13.584;2023-01-29T00:45:06;102445.00;;;1.77;80.83
23016;BME280;11674;52.428;13.584;2023-01-29T00:50:13;102431.69;;;1.74;80.63
23016;BME280;11674;52.428;13.584;2023-01-29T00:55:20;102424.72;;;1.71;80.60
23016;BME280;11674;52.428;13.584;2023-01-29T01:00:27;102436.34;;;1.73;80.71
23016;BME280;11674;52.428;13.584;2023-01-29T01:05:34;102428.59;;;1.77;80.73
23016;BME280;11674;52.428;13.584;2023-01-29T01:10:41;102439.41;;;1.85;80.58
23016;BME280;11674;52.428;13.584;2023-01-29T01:15:48;102431.19;;;1.85;80.74
23016;BME280;11674;52.428;13.584;2023-01-29T01:20:56;102433.28;;;1.83;80.56
23016;BME280;11674;52.428;13.584;2023-01-29T01:26:08;102447.78;;;1.83;80.61
23016;BME280;11674;52.428;13.584;2023-01-29T01:31:15;102426.59;;;1.85;80.71
23016;BME280;11674;52.428;13.584;2023-01-29T01:36:22;102432.53;;;1.89;81.04
23016;BME280;11674;52.428;13.584;2023-01-29T01:41:30;102436.34;;;1.94;80.94
23016;BME280;11674;52.428;13.584;2023-01-29T01:46:37;102432.19;;;1.98;80.70
23016;BME280;11674;52.428;13.584;2023-01-29T01:51:47;102429.88;;;1.95;80.76
23016;BME280;11674;52.428;13.584;2023-01-29T01:57:02;102441.81;;;1.94;80.49
23016;BME280;11674;52.428;13.584;2023-01-29T02:02:10;102433.84;;;1.93;80.50
23016;BME280;11674;52.428;13.584;2023-01-29T02:07:17;102423.53;;;1.95;80.67
23016;BME280;11674;52.428;13.584;2023-01-29T02:12:24;102427.50;;;1.92;80.70
23016;BME280;11674;52.428;13.584;2023-01-29T02:17:31;102413.19;;;1.90;80.43
23016;BME280;11674;52.428;13.584;2023-01-29T02:39:34;102398.53;;;1.98;80.78
23016;BME280;11674;52.428;13.584;2023-01-29T02:44:54;102399.56;;;1.97;80.89
23016;BME280;11674;52.428;13.584;2023-01-29T02:50:18;102409.25;;;1.99;80.45
23016;BME280;11674;52.428;13.584;2023-01-29T02:55:35;102398.13;;;2.01;80.44
23016;BME280;11674;52.428;13.584;2023-01-29T03:00:47;102384.06;;;2.04;80.41
23016;BME280;11674;52.428;13.584;2023-01-29T03:05:59;102381.16;;;2.05;80.41
23016;BME280;11674;52.428;13.584;2023-01-29T03:11:13;102386.41;;;2.07;80.44
23016;BME280;11674;52.428;13.584;2023-01-29T03:16:28;102384.53;;;2.07;80.35
23016;BME280;11674;52.428;13.584;2023-01-29T03:21:44;102374.03;;;2.11;80.47
23016;BME280;11674;52.428;13.584;2023-01-29T03:26:55;102372.16;;;2.11;80.29
23016;BME280;11674;52.428;13.584;2023-01-29T03:32:09;102367.50;;;2.12;80.33
23016;BME280;11674;52.428;13.584;2023-01-29T03:37:24;102378.28;;;2.13;80.42
23016;BME280;11674;52.428;13.584;2023-01-29T03:53:26;102338.91;;;2.14;80.37
23016;BME280;11674;52.428;13.584;2023-01-29T03:58:41;102338.09;;;2.14;80.19
23016;BME280;11674;52.428;13.584;2023-01-29T04:03:56;102322.03;;;2.11;80.27
23016;BME280;11674;52.428;13.584;2023-01-29T04:09:10;102307.91;;;2.07;80.37
23016;BME280;11674;52.428;13.584;2023-01-29T04:14:18;102318.66;;;2.09;80.20
23016;BME280;11674;52.428;13.584;2023-01-29T04:19:27;102306.88;;;2.08;80.25
23016;BME280;11674;52.428;13.584;2023-01-29T04:24:36;102285.84;;;2.09;80.30
23016;BME280;11674;52.428;13.584;2023-01-29T04:29:47;102284.59;;;2.11;80.29
23016;BME280;11674;52.428;13.584;2023-01-29T04:40:26;102263.16;;;2.15;80.12
23016;BME280;11674;52.428;13.584;2023-01-29T04:51:14;102257.25;;;2.18;80.24
23016;BME280;11674;52.428;13.584;2023-01-29T05:01:48;102268.00;;;2.19;80.28
23016;BME280;11674;52.428;13.584;2023-01-29T05:06:56;102270.56;;;2.21;80.22
23016;BME280;11674;52.428;13.584;2023-01-29T05:12:11;102269.31;;;2.23;80.31
23016;BME280;11674;52.428;13.584;2023-01-29T05:17:19;102268.25;;;2.24;80.32
23016;BME280;11674;52.428;13.584;2023-01-29T05:22:26;102265.16;;;2.27;80.12
23016;BME280;11674;52.428;13.584;2023-01-29T05:27:34;102277.59;;;2.30;80.41
23016;BME280;11674;52.428;13.584;2023-01-29T05:32:41;102274.19;;;2.28;80.03
23016;BME280;11674;52.428;13.584;2023-01-29T05:37:48;102283.19;;;2.22;79.90
23016;BME280;11674;52.428;13.584;2023-01-29T05:42:55;102288.16;;;2.12;79.63
23016;BME280;11674;52.428;13.584;2023-01-29T05:48:02;102284.53;;;2.05;79.83
23016;BME280;11674;52.428;13.584;2023-01-29T05:53:09;102285.13;;;2.00;79.59
23016;BME280;11674;52.428;13.584;2023-01-29T05:58:16;102295.16;;;1.93;79.84
23016;BME280;11674;52.428;13.584;2023-01-29T06:03:23;102296.78;;;1.88;79.97
23016;BME280;11674;52.428;13.584;2023-01-29T06:08:30;102302.72;;;1.91;80.11
23016;BME280;11674;52.428;13.584;2023-01-29T06:13:37;102304.41;;;1.92;80.04
23016;BME280;11674;52.428;13.584;2023-01-29T06:18:44;102315.59;;;1.97;80.19
23016;BME280;11674;52.428;13.584;2023-01-29T06:23:52;102307.59;;;1.96;80.10
23016;BME280;11674;52.428;13.584;2023-01-29T06:28:59;102301.56;;;2.00;80.27
23016;BME280;11674;52.428;13.584;2023-01-29T06:34:07;102306.16;;;2.00;80.18
23016;BME280;11674;52.428;13.584;2023-01-29T06:39:14;102297.56;;;2.03;80.45
23016;BME280;11674;52.428;13.584;2023-01-29T06:44:21;102296.78;;;2.09;80.25
23016;BME280;11674;52.428;13.584;2023-01-29T06:49:28;102299.28;;;2.10;80.29
23016;BME280;11674;52.428;13.584;2023-01-29T06:54:35;102306.50;;;2.11;80.49
23016;BME280;11674;52.428;13.584;2023-01-29T06:59:42;102303.34;;;2.14;80.44
23016;BME280;11674;52.428;13.584;2023-01-29T07:04:49;102309.66;;;2.15;80.53
23016;BME280;11674;52.428;13.584;2023-01-29T07:09:56;102309.06;;;2.19;80.56
23016;BME280;11674;52.428;13.584;2023-01-29T07:15:04;102296.88;;;2.22;80.53
23016;BME280;11674;52.428;13.584;2023-01-29T07:20:10;102311.22;;;2.24;80.75
23016;BME280;11674;52.428;13.584;2023-01-29T07:25:17;102290.59;;;2.28;80.62
23016;BME280;11674;52.428;13.584;2023-01-29T07:30:24;102279.28;;;2.31;80.76
23016;BME280;11674;52.428;13.584;2023-01-29T07:35:35;102298.88;;;2.34;80.79
23016;BME280;11674;52.428;13.584;2023-01-29T07:40:42;102292.53;;;2.34;80.58
23016;BME280;11674;52.428;13.584;2023-01-29T07:45:49;102279.53;;;2.36;80.64
23016;BME280;11674;52.428;13.584;2023-01-29T07:50:57;102278.84;;;2.34;80.63
23016;BME280;11674;52.428;13.584;2023-01-29T07:56:04;102262.84;;;2.31;80.67
23016;BME280;11674;52.428;13.584;2023-01-29T08:01:11;102251.97;;;2.37;80.87
23016;BME280;11674;52.428;13.584;2023-01-29T08:06:18;102261.44;;;2.41;80.79
23016;BME280;11674;52.428;13.584;2023-01-29T08:11:25;102263.78;;;2.44;80.62
23016;BME280;11674;52.428;13.584;2023-01-29T08:16:32;102253.66;;;2.45;80.81
23016;BME280;11674;52.428;13.584;2023-01-29T08:21:39;102250.53;;;2.48;80.79
23016;BME280;11674;52.428;13.584;2023-01-29T08:26:46;102257.88;;;2.47;80.83
23016;BME280;11674;52.428;13.584;2023-01-29T08:31:53;102239.38;;;2.49;80.67
23016;BME280;11674;52.428;13.584;2023-01-29T08:37:00;102255.41;;;2.52;80.84
23016;BME280;11674;52.428;13.584;2023-01-29T08:42:07;102228.47;;;2.56;80.76
23016;BME280;11674;52.428;13.584;2023-01-29T08:47:14;102238.16;;;2.58;80.88
23016;BME280;11674;52.428;13.584;2023-01-29T08:52:21;102248.72;;;2.61;80.91
23016;BME280;11674;52.428;13.584;2023-01-29T08:57:28;102252.94;;;2.64;80.81
23016;BME280;11674;52.428;13.584;2023-01-29T09:02:36;102255.94;;;2.69;80.92
23016;BME280;11674;52.428;13.584;2023-01-29T09:07:42;102243.72;;;2.71;80.90
23016;BME280;11674;52.428;13.584;2023-01-29T09:12:49;102231.91;;;2.71;80.88
23016;BME280;11674;52.428;13.584;2023-01-29T09:17:56;102229.59;;;2.74;81.09
23016;BME280;11674;52.428;13.584;2023-01-29T09:23:05;102223.53;;;2.79;81.04
23016;BME280;11674;52.428;13.584;2023-01-29T09:28:12;102222.47;;;2.80;81.01
23016;BME280;11674;52.428;13.584;2023-01-29T09:33:19;102233.03;;;2.83;81.21
23016;BME280;11674;52.428;13.584;2023-01-29T09:38:26;102238.75;;;2.88;81.19
23016;BME280;11674;52.428;13.584;2023-01-29T09:43:42;102223.19;;;2.95;81.42
23016;BME280;11674;52.428;13.584;2023-01-29T09:48:58;102212.25;;;3.01;81.36
23016;BME280;11674;52.428;13.584;2023-01-29T09:54:20;102202.56;;;3.12;81.43
23016;BME280;11674;52.428;13.584;2023-01-29T09:59:30;102194.19;;;3.20;81.43
23016;BME280;11674;52.428;13.584;2023-01-29T10:16:03;102178.81;;;3.45;81.58
23016;BME280;11674;52.428;13.584;2023-01-29T10:21:43;102158.56;;;3.52;81.64
23016;BME280;11674;52.428;13.584;2023-01-29T10:26:54;102155.84;;;3.65;81.78
23016;BME280;11674;52.428;13.584;2023-01-29T10:32:01;102151.59;;;3.76;81.76
23016;BME280;11674;52.428;13.584;2023-01-29T10:37:39;102156.47;;;3.93;81.94
23016;BME280;11674;52.428;13.584;2023-01-29T10:43:13;102170.56;;;4.10;81.99
23016;BME280;11674;52.428;13.584;2023-01-29T10:59:34;102138.88;;;4.27;81.72
23016;BME280;11674;52.428;13.584;2023-01-29T11:04:44;102117.31;;;4.30;81.75
23016;BME280;11674;52.428;13.584;2023-01-29T11:10:10;102113.69;;;4.43;82.16
23016;BME280;11674;52.428;13.584;2023-01-29T11:15:23;102108.72;;;4.58;81.68
23016;BME280;11674;52.428;13.584;2023-01-29T11:20:32;102093.09;;;4.65;81.94
23016;BME280;11674;52.428;13.584;2023-01-29T11:25:38;102112.91;;;4.73;81.91
23016;BME280;11674;52.428;13.584;2023-01-29T11:30:45;102089.81;;;4.81;81.91
23016;BME280;11674;52.428;13.584;2023-01-29T11:35:52;102072.63;;;4.92;82.41
23016;BME280;11674;52.428;13.584;2023-01-29T11:41:13;102069.34;;;5.08;82.12
23016;BME280;11674;52.428;13.584;2023-01-29T11:46:20;102064.41;;;5.16;82.04
23016;BME280;11674;52.428;13.584;2023-01-29T11:51:28;102050.78;;;5.28;82.12
23016;BME280;11674;52.428;13.584;2023-01-29T11:56:40;102050.38;;;5.24;81.90
23016;BME280;11674;52.428;13.584;2023-01-29T12:01:48;102042.97;;;5.25;81.94
23016;BME280;11674;52.428;13.584;2023-01-29T12:06:55;102040.19;;;5.31;81.90
23016;BME280;11674;52.428;13.584;2023-01-29T12:12:16;102031.63;;;5.39;81.83
23016;BME280;11674;52.428;13.584;2023-01-29T12:17:25;102021.19;;;5.48;82.30
23016;BME280;11674;52.428;13.584;2023-01-29T12:33:37;101992.16;;;5.52;81.61
23016;BME280;11674;52.428;13.584;2023-01-29T12:38:44;101981.84;;;5.47;81.61
23016;BME280;11674;52.428;13.584;2023-01-29T12:43:55;101961.34;;;5.43;81.49
23016;BME280;11674;52.428;13.584;2023-01-29T12:49:10;101948.03;;;5.40;81.47
23016;BME280;11674;52.428;13.584;2023-01-29T12:54:22;101947.81;;;5.42;81.51
23016;BME280;11674;52.428;13.584;2023-01-29T12:59:41;101953.47;;;5.47;81.60
23016;BME280;11674;52.428;13.584;2023-01-29T13:04:58;101965.06;;;5.49;81.53
23016;BME280;11674;52.428;13.584;2023-01-29T13:10:17;101964.84;;;5.50;81.40
23016;BME280;11674;52.428;13.584;2023-01-29T13:15:39;101961.50;;;5.48;81.18
23016;BME280;11674;52.428;13.584;2023-01-29T13:20:48;101956.81;;;5.49;81.22
23016;BME280;11674;52.428;13.584;2023-01-29T13:25:56;101951.31;;;5.49;81.07
23016;BME280;11674;52.428;13.584;2023-01-29T13:31:10;101938.19;;;5.51;81.03
23016;BME280;11674;52.428;13.584;2023-01-29T13:36:28;101937.81;;;5.47;81.14
23016;BME280;11674;52.428;13.584;2023-01-29T13:41:40;101948.19;;;5.45;81.07
23016;BME280;11674;52.428;13.584;2023-01-29T13:46:52;101943.22;;;5.36;81.00
23016;BME280;11674;52.428;13.584;2023-01-29T13:52:39;101942.66;;;5.27;80.97
23016;BME280;11674;52.428;13.584;2023-01-29T13:57:51;101934.41;;;5.27;81.09
23016;BME280;11674;52.428;13.584;2023-01-29T14:18:26;101917.56;;;4.99;80.72
23016;BME280;11674;52.428;13.584;2023-01-29T14:34:12;101909.63;;;4.85;80.40
23016;BME280;11674;52.428;13.584;2023-01-29T14:39:28;101906.34;;;4.76;80.60
23016;BME280;11674;52.428;13.584;2023-01-29T14:55:02;101901.66;;;4.59;80.53
23016;BME280;11674;52.428;13.584;2023-01-29T15:00:18;101892.38;;;4.53;80.55
23016;BME280;11674;52.428;13.584;2023-01-29T15:05:35;101883.97;;;4.48;80.67
23016;BME280;11674;52.428;13.584;2023-01-29T15:10:44;101883.56;;;4.45;80.63
23016;BME280;11674;52.428;13.584;2023-01-29T15:16:16;101875.13;;;4.46;80.75
23016;BME280;11674;52.428;13.584;2023-01-29T15:21:24;101864.13;;;4.46;80.73
23016;BME280;11674;52.428;13.584;2023-01-29T15:26:32;101856.31;;;4.43;80.65
23016;BME280;11674;52.428;13.584;2023-01-29T15:31:40;101857.22;;;4.37;80.78
23016;BME280;11674;52.428;13.584;2023-01-29T15:36:48;101844.59;;;4.30;80.71
23016;BME280;11674;52.428;13.584;2023-01-29T15:42:13;101839.56;;;4.27;80.97
23016;BME280;11674;52.428;13.584;2023-01-29T15:47:29;101853.72;;;4.24;80.85
23016;BME280;11674;52.428;13.584;2023-01-29T15:52:38;101848.06;;;4.19;80.74
23016;BME280;11674;52.428;13.584;2023-01-29T15:57:44;101844.91;;;4.15;80.77
23016;BME280;11674;52.428;13.584;2023-01-29T16:02:52;101835.00;;;4.14;80.79
23016;BME280;11674;52.428;13.584;2023-01-29T16:07:59;101834.38;;;4.12;80.85
23016;BME280;11674;52.428;13.584;2023-01-29T16:13:23;101828.06;;;4.12;80.92
23016;BME280;11674;52.428;13.584;2023-01-29T16:18:35;101827.22;;;4.11;80.94
23016;BME280;11674;52.428;13.584;2023-01-29T16:23:45;101819.81;;;4.12;80.99
23016;BME280;11674;52.428;13.584;2023-01-29T16:28:54;101833.34;;;4.13;80.98
23016;BME280;11674;52.428;13.584;2023-01-29T16:34:07;101817.69;;;4.14;81.12
23016;BME280;11674;52.428;13.584;2023-01-29T16:39:25;101802.69;;;4.16;81.39
23016;BME280;11674;52.428;13.584;2023-01-29T16:44:38;101808.16;;;4.16;81.17
23016;BME280;11674;52.428;13.584;2023-01-29T16:49:50;101812.84;;;4.16;81.07
23016;BME280;11674;52.428;13.584;2023-01-29T16:55:03;101804.34;;;4.17;81.17
23016;BME280;11674;52.428;13.584;2023-01-29T17:00:29;101805.81;;;4.20;81.08
23016;BME280;11674;52.428;13.584;2023-01-29T17:05:37;101800.59;;;4.12;80.61
23016;BME280;11674;52.428;13.584;2023-01-29T17:10:46;101803.59;;;4.04;80.71
23016;BME280;11674;52.428;13.584;2023-01-29T17:15:58;101798.13;;;4.04;80.88
23016;BME280;11674;52.428;13.584;2023-01-29T17:21:05;101792.41;;;4.05;80.98
23016;BME280;11674;52.428;13.584;2023-01-29T17:26:13;101785.84;;;4.06;80.95
23016;BME280;11674;52.428;13.584;2023-01-29T17:31:20;101774.50;;;4.03;80.87
23016;BME280;11674;52.428;13.584;2023-01-29T17:36:27;101768.66;;;3.93;80.60
23016;BME280;11674;52.428;13.584;2023-01-29T17:41:36;101757.72;;;3.86;80.67
23016;BME280;11674;52.428;13.584;2023-01-29T17:46:43;101761.13;;;3.82;80.46
23016;BME280;11674;52.428;13.584;2023-01-29T17:51:52;101742.38;;;3.79;80.38
23016;BME280;11674;52.428;13.584;2023-01-29T17:56:58;101723.00;;;3.74;80.62
23016;BME280;11674;52.428;13.584;2023-01-29T18:02:05;101716.00;;;3.78;80.92
23016;BME280;11674;52.428;13.584;2023-01-29T18:07:12;101706.91;;;3.84;80.79
23016;BME280;11674;52.428;13.584;2023-01-29T18:12:19;101702.84;;;3.86;81.02
23016;BME280;11674;52.428;13.584;2023-01-29T18:17:26;101701.34;;;3.90;81.21
23016;BME280;11674;52.428;13.584;2023-01-29T18:22:33;101681.00;;;3.98;81.25
23016;BME280;11674;52.428;13.584;2023-01-29T18:27:48;101667.66;;;4.01;81.19
23016;BME280;11674;52.428;13.584;2023-01-29T18:32:54;101682.84;;;4.04;81.24
23016;BME280;11674;52.428;13.584;2023-01-29T18:38:01;101678.00;;;4.06;81.23
23016;BME280;11674;52.428;13.584;2023-01-29T18:43:08;101673.72;;;4.10;81.15
23016;BME280;11674;52.428;13.584;2023-01-29T18:48:15;101662.50;;;4.11;81.40
23016;BME280;11674;52.428;13.584;2023-01-29T18:53:22;101648.78;;;4.11;81.21
23016;BME280;11674;52.428;13.584;2023-01-29T18:58:33;101650.94;;;4.09;80.96
23016;BME280;11674;52.428;13.584;2023-01-29T19:03:41;101646.50;;;4.08;81.08
23016;BME280;11674;52.428;13.584;2023-01-29T19:08:47;101654.97;;;4.07;81.04
23016;BME280;11674;52.428;13.584;2023-01-29T19:13:54;101635.13;;;4.05;80.95
23016;BME280;11674;52.428;13.584;2023-01-29T19:19:02;101613.56;;;4.08;80.82
23016;BME280;11674;52.428;13.584;2023-01-29T19:24:08;101631.94;;;4.08;80.92
23016;BME280;11674;52.428;13.584;2023-01-29T19:29:16;101624.28;;;4.10;80.88
23016;BME280;11674;52.428;13.584;2023-01-29T19:34:23;101604.72;;;4.06;80.76
23016;BME280;11674;52.428;13.584;2023-01-29T19:39:29;101606.84;;;4.04;80.83
23016;BME280;11674;52.428;13.584;2023-01-29T19:44:36;101595.50;;;4.01;80.75
23016;BME280;11674;52.428;13.584;2023-01-29T19:49:43;101584.88;;;4.04;80.81
23016;BME280;11674;52.428;13.584;2023-01-29T19:54:50;101562.72;;;4.06;80.89
23016;BME280;11674;52.428;13.584;2023-01-29T19:59:59;101546.25;;;4.06;80.95
23016;BME280;11674;52.428;13.584;2023-01-29T20:05:07;101558.41;;;4.10;80.63
23016;BME280;11674;52.428;13.584;2023-01-29T20:10:14;101551.63;;;4.12;81.00
23016;BME280;11674;52.428;13.584;2023-01-29T20:15:20;101541.28;;;4.14;80.85
23016;BME280;11674;52.428;13.584;2023-01-29T20:20:27;101541.06;;;4.16;80.81
23016;BME280;11674;52.428;13.584;2023-01-29T20:25:35;101518.47;;;4.14;80.65
23016;BME280;11674;52.428;13.584;2023-01-29T20:30:43;101508.34;;;4.14;80.56
23016;BME280;11674;52.428;13.584;2023-01-29T20:35:55;101492.94;;;4.13;80.82
23016;BME280;11674;52.428;13.584;2023-01-29T20:46:10;101494.47;;;4.09;80.41
23016;BME280;11674;52.428;13.584;2023-01-29T20:51:26;101474.88;;;4.06;80.46
23016;BME280;11674;52.428;13.584;2023-01-29T20:56:33;101466.03;;;4.04;80.25
23016;BME280;11674;52.428;13.584;2023-01-29T21:01:40;101455.03;;;4.04;80.36
23016;BME280;11674;52.428;13.584;2023-01-29T21:06:47;101448.13;;;4.01;80.31
23016;BME280;11674;52.428;13.584;2023-01-29T21:11:54;101441.81;;;4.01;80.28
23016;BME280;11674;52.428;13.584;2023-01-29T21:17:01;101428.91;;;4.01;80.18
23016;BME280;11674;52.428;13.584;2023-01-29T21:22:08;101415.56;;;4.05;80.20
23016;BME280;11674;52.428;13.584;2023-01-29T21:27:15;101411.38;;;4.02;79.94
23016;BME280;11674;52.428;13.584;2023-01-29T21:32:22;101399.09;;;4.05;79.96
23016;BME280;11674;52.428;13.584;2023-01-29T21:37:29;101380.13;;;4.03;79.81
23016;BME280;11674;52.428;13.584;2023-01-29T21:42:36;101389.03;;;3.99;79.87
23016;BME280;11674;52.428;13.584;2023-01-29T21:47:43;101380.66;;;3.94;79.64
23016;BME280;11674;52.428;13.584;2023-01-29T21:52:50;101362.38;;;3.88;79.76
23016;BME280;11674;52.428;13.584;2023-01-29T21:57:58;101349.97;;;3.85;79.73
23016;BME280;11674;52.428;13.584;2023-01-29T22:03:05;101325.53;;;3.84;79.73
23016;BME280;11674;52.428;13.584;2023-01-29T22:08:11;101330.63;;;3.80;79.59
23016;BME280;11674;52.428;13.584;2023-01-29T22:13:18;101326.00;;;3.81;79.86
23016;BME280;11674;52.428;13.584;2023-01-29T22:18:26;101323.47;;;3.79;79.76
23016;BME280;11674;52.428;13.584;2023-01-29T22:23:32;101319.28;;;3.77;79.78
23016;BME280;11674;52.428;13.584;2023-01-29T22:28:39;101308.31;;;3.77;79.56
23016;BME280;11674;52.428;13.584;2023-01-29T22:33:47;101294.59;;;3.77;79.63
23016;BME280;11674;52.428;13.584;2023-01-29T22:38:53;101282.56;;;3.78;79.64
23016;BME280;11674;52.428;13.584;2023-01-29T22:44:01;101264.44;;;3.77;79.62
23016;BME280;11674;52.428;13.584;2023-01-29T22:49:08;101254.06;;;3.79;79.53
23016;BME280;11674;52.428;13.584;2023-01-29T22:54:21;101231.88;;;3.80;79.63
23016;BME280;11674;52.428;13.584;2023-01-29T22:59:28;101235.91;;;3.78;79.62
23016;BME280;11674;52.428;13.584;2023-01-29T23:04:35;101210.41;;;3.77;79.38
23016;BME280;11674;52.428;13.584;2023-01-29T23:09:42;101218.88;;;3.76;79.40
23016;BME280;11674;52.428;13.584;2023-01-29T23:14:49;101198.81;;;3.75;79.13
23016;BME280;11674;52.428;13.584;2023-01-29T23:19:57;101182.63;;;3.74;79.16
23016;BME280;11674;52.428;13.584;2023-01-29T23:25:04;101171.66;;;3.74;79.16
23016;BME280;11674;52.428;13.584;2023-01-29T23:30:11;101156.84;;;3.75;79.27
23016;BME280;11674;52.428;13.584;2023-01-29T23:35:17;101159.13;;;3.78;79.21
23016;BME280;11674;52.428;13.584;2023-01-29T23:40:24;101135.88;;;3.80;79.17
23016;BME280;11674;52.428;13.584;2023-01-29T23:45:32;101138.59;;;3.80;78.99
23016;BME280;11674;52.428;13.584;2023-01-29T23:50:38;101120.25;;;3.81;79.00
23016;BME280;11674;52.428;13.584;2023-01-29T23:55:59;101109.88;;;3.83;78.96
